Alta, Indiana
Current Conditions -  °F | °C
As of 12:15 AM on Saturday 25 Oct 2014 (Local Time) from KPRG Reporting Station
Haze Haze  
Wind Chill: 48°   Ceiling: 5000
Heat Index: 48°   Visibility: 5mi
Dew Point: 48°   Wind: 0mph
Humidity: 99%   Direction: NA
Pressure: 30.02"   Gusts: NA
Location:  39.7643°N, 87.4119°W
Report Text: KPRG 250415Z AUTO 00000KT 5SM BR BKN050 09/09 A3002 RMK AO2 T00890088
Loading
Personal Weather Stations






























Interactive Weather Map New forecast layout! Learn more

10-Day Weather Forecast

Advertisements
Track Severe Weather on mobile